createdAt,value
2022-11-16T00:00:16.630Z,4.20
2022-11-16T00:02:43.754Z,4.20
2022-11-16T00:05:10.842Z,3.90
2022-11-16T00:07:38.185Z,3.77
2022-11-16T00:10:05.612Z,3.77
2022-11-16T00:12:32.703Z,3.97
2022-11-16T00:14:59.741Z,4.10
2022-11-16T00:17:26.845Z,4.17
2022-11-16T00:19:53.923Z,3.83
2022-11-16T00:22:21.188Z,3.83
2022-11-16T00:24:48.256Z,3.80
2022-11-16T00:27:15.341Z,4.33
2022-11-16T00:29:42.444Z,4.77
2022-11-16T00:32:09.530Z,4.30
2022-11-16T00:34:36.575Z,4.37
2022-11-16T00:37:03.736Z,4.30
2022-11-16T00:39:30.802Z,4.43
2022-11-16T00:41:57.974Z,4.30
2022-11-16T00:44:25.372Z,3.93
2022-11-16T00:46:52.655Z,4.30
2022-11-16T00:49:19.721Z,4.23
2022-11-16T00:51:46.834Z,4.10
2022-11-16T00:54:13.919Z,4.37
2022-11-16T00:56:41.078Z,3.80
2022-11-16T00:59:08.219Z,4.67
2022-11-16T01:01:35.411Z,4.47
2022-11-16T01:04:02.576Z,4.73
2022-11-16T01:06:29.657Z,4.20
2022-11-16T01:08:56.786Z,4.33
2022-11-16T01:11:42.667Z,4.50
2022-11-16T01:14:10.203Z,4.93
2022-11-16T01:16:37.493Z,5.00
2022-11-16T01:19:04.987Z,5.13
2022-11-16T01:21:32.204Z,4.63
2022-11-16T01:23:59.352Z,5.13
2022-11-16T01:26:26.466Z,5.00
2022-11-16T01:28:53.816Z,4.63
2022-11-16T01:31:20.943Z,5.07
2022-11-16T01:33:48.065Z,5.27
2022-11-16T01:36:15.269Z,4.83
2022-11-16T01:38:43.240Z,5.50
2022-11-16T01:41:13.529Z,5.20
2022-11-16T01:43:54.233Z,5.07
2022-11-16T01:46:21.434Z,5.27
2022-11-16T01:48:50.356Z,5.03
2022-11-16T01:51:17.647Z,4.90
2022-11-16T01:53:44.798Z,5.87
2022-11-16T01:56:12.005Z,5.07
2022-11-16T01:58:39.137Z,5.37
2022-11-16T02:01:06.302Z,5.33
2022-11-16T02:03:33.605Z,5.80
2022-11-16T02:06:09.915Z,5.57
2022-11-16T02:08:58.389Z,5.67
2022-11-16T02:11:41.107Z,5.40
2022-11-16T02:14:27.003Z,5.50
2022-11-16T02:17:20.784Z,5.33
2022-11-16T02:19:57.203Z,6.00
2022-11-16T02:22:37.129Z,6.50
2022-11-16T02:25:04.204Z,5.30
2022-11-16T02:27:54.272Z,5.70
2022-11-16T02:30:22.079Z,5.70
2022-11-16T02:32:52.640Z,5.60
2022-11-16T02:35:26.124Z,6.13
2022-11-16T02:38:02.509Z,5.87
2022-11-16T02:40:31.834Z,6.03
2022-11-16T02:43:01.551Z,5.77
2022-11-16T02:45:30.535Z,6.80
2022-11-16T02:48:00.884Z,6.73
2022-11-16T02:50:28.078Z,6.93
2022-11-16T02:52:55.717Z,6.83
2022-11-16T02:55:23.323Z,7.17
2022-11-16T02:57:58.297Z,6.87
2022-11-16T03:00:31.861Z,7.00
2022-11-16T03:03:08.066Z,7.10
2022-11-16T03:05:58.244Z,6.23
2022-11-16T03:08:31.982Z,6.90
2022-11-16T03:11:21.203Z,6.83
2022-11-16T03:13:49.236Z,7.47
2022-11-16T03:16:36.701Z,6.83
2022-11-16T03:19:06.244Z,7.17
2022-11-16T03:21:39.483Z,7.20
2022-11-16T03:24:07.192Z,7.20
2022-11-16T03:26:39.809Z,7.40
2022-11-16T03:29:15.118Z,7.30
2022-11-16T03:31:48.386Z,6.83
2022-11-16T03:34:17.283Z,7.23
2022-11-16T03:36:46.058Z,7.63
2022-11-16T03:39:24.263Z,7.47
2022-11-16T03:41:51.443Z,7.80
2022-11-16T03:44:19.614Z,7.33
2022-11-16T03:46:47.549Z,7.77
2022-11-16T03:49:15.868Z,7.97
2022-11-16T03:51:43.025Z,7.73
2022-11-16T03:54:10.083Z,7.23
2022-11-16T03:56:37.152Z,8.03
2022-11-16T03:59:04.279Z,8.30
2022-11-16T04:01:31.406Z,8.73
2022-11-16T04:03:58.446Z,8.37
2022-11-16T04:06:44.244Z,8.37
2022-11-16T04:09:30.377Z,8.63
2022-11-16T04:12:16.275Z,8.37
2022-11-16T04:15:02.187Z,8.47
2022-11-16T04:17:48.691Z,9.10
2022-11-16T04:20:34.485Z,8.67
2022-11-16T04:23:25.629Z,9.17
2022-11-16T04:25:52.823Z,8.70
2022-11-16T04:28:28.186Z,8.70
2022-11-16T04:31:15.743Z,8.30
2022-11-16T04:34:01.633Z,8.70
2022-11-16T04:36:47.809Z,9.03
2022-11-16T04:39:14.986Z,9.13
2022-11-16T04:42:01.056Z,9.27
2022-11-16T04:44:50.877Z,8.33
2022-11-16T04:47:17.921Z,8.63
2022-11-16T04:49:45.155Z,8.93
2022-11-16T04:52:12.293Z,9.00
2022-11-16T04:54:39.531Z,8.93
2022-11-16T04:57:06.579Z,9.73
2022-11-16T04:59:33.623Z,9.50
2022-11-16T05:02:09.700Z,10.30
2022-11-16T05:04:37.797Z,8.80
2022-11-16T05:07:10.699Z,9.60
2022-11-16T05:09:47.751Z,9.73
2022-11-16T05:12:19.410Z,9.70
2022-11-16T05:14:46.724Z,9.93
2022-11-16T05:17:14.226Z,9.50
2022-11-16T05:20:00.009Z,10.03
2022-11-16T05:22:27.100Z,10.30
2022-11-16T05:24:54.468Z,8.73
2022-11-16T05:27:23.014Z,8.93
2022-11-16T05:29:50.271Z,9.73
2022-11-16T05:32:17.607Z,9.67
2022-11-16T05:34:44.690Z,8.90
2022-11-16T05:37:12.285Z,8.87
2022-11-16T05:39:39.740Z,9.00
2022-11-16T05:42:07.024Z,10.07
2022-11-16T05:44:34.363Z,9.10
2022-11-16T05:47:01.929Z,9.83
2022-11-16T05:49:28.976Z,9.47
2022-11-16T05:51:56.200Z,9.90
2022-11-16T05:54:27.135Z,9.17
2022-11-16T05:56:54.921Z,9.77
2022-11-16T05:59:22.932Z,8.77
2022-11-16T06:01:50.328Z,9.47
2022-11-16T06:06:58.430Z,9.80
2022-11-16T06:09:25.510Z,9.60
2022-11-16T06:11:52.662Z,9.33
2022-11-16T06:14:19.768Z,9.63
2022-11-16T06:16:47.004Z,9.63
2022-11-16T06:19:14.136Z,9.37
2022-11-16T06:21:41.516Z,9.03
2022-11-16T06:24:09.636Z,9.83
2022-11-16T06:26:37.184Z,9.13
2022-11-16T06:29:04.351Z,8.53
2022-11-16T06:37:39.759Z,8.97
2022-11-16T06:40:07.277Z,9.80
2022-11-16T06:42:34.376Z,9.43
2022-11-16T06:47:46.769Z,8.53
2022-11-16T06:50:13.436Z,9.60
2022-11-16T06:52:40.099Z,9.63
2022-11-16T06:55:07.212Z,9.63
2022-11-16T06:57:35.573Z,9.27
2022-11-16T07:00:02.590Z,9.10
2022-11-16T07:02:29.206Z,8.67
2022-11-16T07:05:00.606Z,8.87
2022-11-16T07:07:30.062Z,9.20
2022-11-16T07:09:56.843Z,9.10
2022-11-16T07:12:23.507Z,9.17
2022-11-16T07:14:50.137Z,9.60
2022-11-16T07:17:16.778Z,9.87
2022-11-16T07:19:43.905Z,9.53
2022-11-16T07:22:10.669Z,8.50
2022-11-16T07:24:37.316Z,9.27
2022-11-16T07:27:04.135Z,8.97
2022-11-16T07:29:31.428Z,8.33
2022-11-16T07:31:58.064Z,8.97
2022-11-16T07:34:24.726Z,8.80
2022-11-16T07:36:51.319Z,9.50
2022-11-16T07:39:18.002Z,8.30
2022-11-16T07:41:45.143Z,7.57
2022-11-16T07:44:12.344Z,8.07
2022-11-16T07:46:48.173Z,8.17
2022-11-16T07:49:17.235Z,7.97
2022-11-16T07:51:44.255Z,6.90
2022-11-16T07:54:15.199Z,7.60
2022-11-16T07:56:48.826Z,6.77
2022-11-16T07:59:24.924Z,6.80
2022-11-16T08:01:52.360Z,6.07
2022-11-16T08:04:19.035Z,6.17
2022-11-16T08:06:46.918Z,6.37
2022-11-16T08:09:17.113Z,5.70
2022-11-16T08:11:43.806Z,5.90
2022-11-16T08:14:11.701Z,5.97
2022-11-16T08:16:38.557Z,5.60
2022-11-16T08:19:05.424Z,6.13
2022-11-16T08:21:32.100Z,6.53
2022-11-16T08:27:21.125Z,6.30
2022-11-16T08:29:48.169Z,5.80
2022-11-16T08:32:15.342Z,6.23
2022-11-16T08:34:42.374Z,5.87
2022-11-16T08:37:09.500Z,5.47
2022-11-16T08:39:36.599Z,5.30
2022-11-16T08:42:03.766Z,5.87
2022-11-16T08:44:30.939Z,5.33
2022-11-16T08:46:58.093Z,5.80
2022-11-16T08:49:25.306Z,5.73
2022-11-16T08:51:52.600Z,5.60
2022-11-16T08:54:20.106Z,5.70
2022-11-16T08:56:47.197Z,5.67
2022-11-16T08:59:14.310Z,5.33
2022-11-16T09:01:41.349Z,6.00
2022-11-16T09:04:08.449Z,5.30
2022-11-16T09:06:36.103Z,5.17
2022-11-16T09:09:03.248Z,5.87
2022-11-16T09:11:30.371Z,5.13
2022-11-16T09:13:57.534Z,6.03
2022-11-16T09:16:24.673Z,5.40
2022-11-16T09:18:52.098Z,6.40
2022-11-16T09:21:23.830Z,6.37
2022-11-16T09:23:51.155Z,6.53
2022-11-16T09:26:21.127Z,6.63
2022-11-16T09:28:48.711Z,6.60
2022-11-16T09:31:20.377Z,7.13
2022-11-16T09:33:50.508Z,7.80
2022-11-16T09:36:17.659Z,7.07
2022-11-16T09:41:38.575Z,7.27
2022-11-16T09:44:12.242Z,8.60
2022-11-16T09:46:42.033Z,9.10
2022-11-16T09:49:17.825Z,8.50
2022-11-16T09:51:47.355Z,9.67
2022-11-16T09:54:35.666Z,9.43
2022-11-16T09:57:11.075Z,8.53
2022-11-16T09:59:42.202Z,8.53
2022-11-16T10:02:30.381Z,8.73
2022-11-16T10:05:10.540Z,8.50
2022-11-16T10:07:41.731Z,9.13
2022-11-16T10:10:13.272Z,8.70
2022-11-16T10:12:49.398Z,8.80
2022-11-16T10:15:24.822Z,8.43
2022-11-16T10:18:11.565Z,8.80
2022-11-16T10:20:38.583Z,8.83
2022-11-16T10:23:12.875Z,9.87
2022-11-16T10:25:47.107Z,8.13
2022-11-16T10:28:22.260Z,8.50
2022-11-16T10:30:59.617Z,8.53
2022-11-16T10:33:35.405Z,13.00
2022-11-16T10:36:05.509Z,10.13
2022-11-16T10:38:33.105Z,8.03
2022-11-16T10:41:20.445Z,9.50
2022-11-16T10:43:48.564Z,5.10
2022-11-16T10:46:24.957Z,4.33
2022-11-16T10:48:56.352Z,5.97
2022-11-16T10:51:23.560Z,4.13
2022-11-16T10:53:53.139Z,3.87
2022-11-16T10:56:22.644Z,3.50
2022-11-16T10:58:49.897Z,2.77
2022-11-16T11:01:30.492Z,2.90
2022-11-16T11:03:57.761Z,4.10
2022-11-16T11:06:26.480Z,2.77
2022-11-16T11:08:53.651Z,2.77
2022-11-16T11:12:00.654Z,2.67
2022-11-16T11:14:27.927Z,2.70
2022-11-16T11:16:55.040Z,2.53
2022-11-16T11:19:27.435Z,2.23
2022-11-16T11:22:00.840Z,3.07
2022-11-16T11:24:45.381Z,3.13
2022-11-16T11:27:13.077Z,4.33
2022-11-16T11:29:41.975Z,3.40
2022-11-16T11:32:18.033Z,3.03
2022-11-16T11:34:49.806Z,2.83
2022-11-16T11:37:19.696Z,2.93
2022-11-16T11:39:46.811Z,2.20
2022-11-16T11:42:13.937Z,3.60
2022-11-16T11:44:47.461Z,2.43
2022-11-16T11:50:20.521Z,3.20
2022-11-16T11:53:06.125Z,2.37
2022-11-16T11:55:33.185Z,2.80
2022-11-16T11:58:01.957Z,3.13
2022-11-16T12:00:34.110Z,2.20
2022-11-16T12:03:27.971Z,2.87
2022-11-16T12:05:58.192Z,2.13
2022-11-16T12:08:43.866Z,3.63
2022-11-16T12:11:21.641Z,2.43
2022-11-16T12:13:53.566Z,2.63
2022-11-16T12:16:39.595Z,3.37
2022-11-16T12:19:23.005Z,2.07
2022-11-16T12:22:02.408Z,2.10
2022-11-16T12:24:47.740Z,2.10
2022-11-16T12:27:35.088Z,2.57
2022-11-16T12:30:07.978Z,2.20
2022-11-16T12:32:40.883Z,1.80
2022-11-16T12:35:16.948Z,2.10
2022-11-16T12:37:55.663Z,2.20
2022-11-16T12:40:41.484Z,1.67
2022-11-16T12:43:14.736Z,1.70
2022-11-16T12:45:41.795Z,1.40
2022-11-16T12:48:11.856Z,1.63
2022-11-16T12:50:38.908Z,1.77
2022-11-16T12:53:09.065Z,1.60
2022-11-16T12:55:38.918Z,1.77
2022-11-16T13:01:14.881Z,1.60
2022-11-16T13:03:46.889Z,1.90
2022-11-16T13:06:20.621Z,2.10
2022-11-16T13:08:51.366Z,2.47
2022-11-16T13:11:23.954Z,2.10
2022-11-16T13:13:54.015Z,1.60
2022-11-16T13:16:21.836Z,2.17
2022-11-16T13:18:49.127Z,1.97
2022-11-16T13:21:19.552Z,1.43
2022-11-16T13:23:52.590Z,1.40
2022-11-16T13:26:22.911Z,2.07
2022-11-16T13:28:54.107Z,1.80
2022-11-16T13:31:26.370Z,2.30
2022-11-16T13:33:59.443Z,1.83
2022-11-16T13:36:32.244Z,1.40
2022-11-16T13:38:59.334Z,1.20
2022-11-16T13:41:28.361Z,1.50
2022-11-16T13:43:55.662Z,1.47
2022-11-16T13:46:54.359Z,1.83
2022-11-16T13:49:22.238Z,1.63
2022-11-16T13:51:53.169Z,1.63
2022-11-16T13:54:45.775Z,0.97
2022-11-16T13:57:20.008Z,1.37
2022-11-16T13:59:48.475Z,1.77
2022-11-16T14:02:30.972Z,1.67
2022-11-16T14:05:06.700Z,1.77
2022-11-16T14:07:40.497Z,1.47
2022-11-16T14:10:08.114Z,1.20
2022-11-16T14:12:38.079Z,1.40
2022-11-16T14:15:16.287Z,1.50
2022-11-16T14:17:50.219Z,1.60
2022-11-16T14:20:25.843Z,1.23
2022-11-16T14:22:57.954Z,1.87
2022-11-16T14:25:34.662Z,1.83
2022-11-16T14:28:20.530Z,2.10
2022-11-16T14:30:53.958Z,1.60
2022-11-16T14:33:29.203Z,1.80
2022-11-16T14:35:56.470Z,1.87
2022-11-16T14:38:26.293Z,1.67
2022-11-16T14:40:59.454Z,1.87
2022-11-16T14:43:46.629Z,1.57
2022-11-16T14:46:16.484Z,1.40
2022-11-16T14:48:44.994Z,2.00
2022-11-16T14:51:15.083Z,1.60
2022-11-16T14:54:05.323Z,1.93
2022-11-16T14:56:32.429Z,1.90
2022-11-16T14:59:00.627Z,1.83
2022-11-16T15:01:30.732Z,1.60
2022-11-16T15:04:12.936Z,2.10
2022-11-16T15:06:42.862Z,1.90
2022-11-16T15:09:14.362Z,1.70
2022-11-16T15:12:01.532Z,2.07
2022-11-16T15:14:33.444Z,1.50
2022-11-16T15:17:04.159Z,1.57
2022-11-16T15:19:31.897Z,1.70
2022-11-16T15:22:00.085Z,2.20
2022-11-16T15:24:32.172Z,2.10
2022-11-16T15:27:22.929Z,1.60
2022-11-16T15:29:50.017Z,2.00
2022-11-16T15:32:17.466Z,1.90
2022-11-16T15:34:48.333Z,2.63
2022-11-16T15:37:26.650Z,2.83
2022-11-16T15:39:54.260Z,2.97
2022-11-16T15:42:21.828Z,3.13
2022-11-16T15:44:48.972Z,3.37
2022-11-16T15:47:16.829Z,2.90
2022-11-16T15:49:44.265Z,2.37
2022-11-16T15:52:11.920Z,3.53
2022-11-16T15:54:57.793Z,2.83
2022-11-16T15:57:25.464Z,3.03
2022-11-16T15:59:56.291Z,2.93
2022-11-16T16:02:27.651Z,3.03
2022-11-16T16:04:55.026Z,3.10
2022-11-16T16:07:38.342Z,2.73
2022-11-16T16:10:25.320Z,2.13
2022-11-16T16:12:56.621Z,2.70
2022-11-16T16:15:31.364Z,3.40
2022-11-16T16:17:59.397Z,3.87
2022-11-16T16:20:28.719Z,2.63
2022-11-16T16:23:05.806Z,5.23
2022-11-16T16:25:34.075Z,5.20
2022-11-16T16:28:01.256Z,5.13
2022-11-16T16:30:29.131Z,4.33
2022-11-16T16:32:56.368Z,4.50
2022-11-16T16:35:24.705Z,3.50
2022-11-16T16:37:52.536Z,3.40
2022-11-16T16:40:19.897Z,3.23
2022-11-16T16:42:50.865Z,3.53
2022-11-16T16:45:20.425Z,3.10
2022-11-16T16:47:47.909Z,2.67
2022-11-16T16:50:15.056Z,3.23
2022-11-16T16:52:42.185Z,3.40
2022-11-16T16:55:09.500Z,3.10
2022-11-16T16:57:36.551Z,3.47
2022-11-16T17:00:04.108Z,3.50
2022-11-16T17:02:31.235Z,3.07
2022-11-16T17:04:58.333Z,3.20
2022-11-16T17:07:25.476Z,2.90
2022-11-16T17:09:52.588Z,3.00
2022-11-16T17:12:19.641Z,3.87
2022-11-16T17:14:51.397Z,3.47
2022-11-16T17:17:24.150Z,3.30
2022-11-16T17:19:51.568Z,2.83
2022-11-16T17:22:19.132Z,3.50
2022-11-16T17:24:46.275Z,3.33
2022-11-16T17:27:13.690Z,2.83
2022-11-16T17:29:40.770Z,2.93
2022-11-16T17:32:08.000Z,2.83
2022-11-16T17:34:35.499Z,2.83
2022-11-16T17:40:41.750Z,2.80
2022-11-16T17:43:48.711Z,2.90
2022-11-16T17:50:18.991Z,2.77
2022-11-16T17:56:14.020Z,2.50
2022-11-16T17:58:41.666Z,2.70
2022-11-16T18:01:11.669Z,3.60
2022-11-16T18:03:39.320Z,2.90
2022-11-16T18:06:06.487Z,2.90
2022-11-16T18:08:34.121Z,2.77
2022-11-16T18:11:08.077Z,2.63
2022-11-16T18:13:35.571Z,3.37
2022-11-16T18:16:06.854Z,3.30
2022-11-16T18:18:34.731Z,3.03
2022-11-16T18:21:02.039Z,2.83
2022-11-16T18:23:29.469Z,3.17
2022-11-16T18:25:56.597Z,2.70
2022-11-16T18:28:23.778Z,3.40
2022-11-16T18:30:50.929Z,2.73
2022-11-16T18:33:18.489Z,3.43
2022-11-16T18:35:53.089Z,3.20
2022-11-16T18:41:20.944Z,2.90
2022-11-16T18:43:52.296Z,3.40
2022-11-16T18:46:20.125Z,3.53
2022-11-16T18:48:47.496Z,3.53
2022-11-16T18:51:15.527Z,2.93
2022-11-16T18:53:42.844Z,2.97
2022-11-16T18:56:11.753Z,2.70
2022-11-16T18:58:54.611Z,2.63
2022-11-16T19:01:23.071Z,3.07
2022-11-16T19:03:50.694Z,2.90
2022-11-16T19:06:18.214Z,2.80
2022-11-16T19:08:50.411Z,3.10
2022-11-16T19:11:21.290Z,2.63
2022-11-16T19:13:52.185Z,3.43
2022-11-16T19:16:19.269Z,2.93
2022-11-16T19:18:46.318Z,3.20
2022-11-16T19:21:14.605Z,3.13
2022-11-16T19:23:42.972Z,3.07
2022-11-16T19:26:10.186Z,3.20
2022-11-16T19:28:37.912Z,3.00
2022-11-16T19:31:09.015Z,4.43
2022-11-16T19:33:36.770Z,3.50
2022-11-16T19:36:07.616Z,3.57
2022-11-16T19:38:34.946Z,3.63
2022-11-16T19:41:02.000Z,3.70
2022-11-16T19:43:29.143Z,3.03
2022-11-16T19:45:56.283Z,4.23
2022-11-16T19:48:23.359Z,3.67
2022-11-16T19:50:50.446Z,3.87
2022-11-16T19:53:17.534Z,3.53
2022-11-16T19:55:52.898Z,3.33
2022-11-16T19:58:19.941Z,3.13
2022-11-16T20:00:47.064Z,3.33
2022-11-16T20:03:14.132Z,3.27
2022-11-16T20:05:41.182Z,3.60
2022-11-16T20:08:08.233Z,3.33
2022-11-16T20:10:35.311Z,3.67
2022-11-16T20:13:19.349Z,3.47
2022-11-16T20:15:47.350Z,3.13
2022-11-16T20:18:14.601Z,3.53
2022-11-16T20:20:41.610Z,3.40
2022-11-16T20:23:08.657Z,3.73
2022-11-16T20:25:40.520Z,3.73
2022-11-16T20:28:07.629Z,4.07
2022-11-16T20:30:34.661Z,3.93
2022-11-16T20:33:01.719Z,3.70
2022-11-16T20:35:28.754Z,3.57
2022-11-16T20:37:55.857Z,3.90
2022-11-16T20:40:22.989Z,3.53
2022-11-16T20:42:50.074Z,3.70
2022-11-16T20:45:17.175Z,3.97
2022-11-16T20:47:44.273Z,4.07
2022-11-16T20:50:11.322Z,3.20
2022-11-16T20:52:43.062Z,4.23
2022-11-16T20:55:11.361Z,5.13
2022-11-16T20:57:38.401Z,4.53
2022-11-16T21:00:05.731Z,4.33
2022-11-16T21:02:32.762Z,3.90
2022-11-16T21:05:00.562Z,3.80
2022-11-16T21:07:27.862Z,4.50
2022-11-16T21:10:13.603Z,4.03
2022-11-16T21:12:59.232Z,4.17
2022-11-16T21:15:26.245Z,4.70
2022-11-16T21:17:53.288Z,5.53
2022-11-16T21:20:27.407Z,4.97
2022-11-16T21:22:55.196Z,5.43
2022-11-16T21:25:22.302Z,4.80
2022-11-16T21:27:49.383Z,5.10
2022-11-16T21:30:16.707Z,5.10
2022-11-16T21:32:43.786Z,5.20
2022-11-16T21:35:10.821Z,4.83
2022-11-16T21:37:37.909Z,4.97
2022-11-16T21:40:05.151Z,4.87
2022-11-16T21:42:32.241Z,4.50
2022-11-16T21:44:59.289Z,5.13
2022-11-16T21:47:26.323Z,5.10
2022-11-16T21:50:24.789Z,5.07
2022-11-16T21:52:40.503Z,5.27
2022-11-16T21:55:07.693Z,4.90
2022-11-16T21:57:34.910Z,5.47
2022-11-16T22:00:02.096Z,5.17
2022-11-16T22:02:29.208Z,4.63
2022-11-16T22:05:14.800Z,5.30
2022-11-16T22:07:42.341Z,4.83
2022-11-16T22:10:10.552Z,4.80
2022-11-16T22:12:37.891Z,4.87
2022-11-16T22:15:05.989Z,4.50
2022-11-16T22:17:33.191Z,5.10
2022-11-16T22:20:00.299Z,5.27
2022-11-16T22:22:27.389Z,4.63
2022-11-16T22:24:54.645Z,4.37
2022-11-16T22:27:21.796Z,5.20
2022-11-16T22:29:48.864Z,5.30
2022-11-16T22:32:15.971Z,4.63
2022-11-16T22:34:43.320Z,4.50
2022-11-16T22:37:10.346Z,4.70
2022-11-16T22:39:37.891Z,5.10
2022-11-16T22:42:05.205Z,4.63
2022-11-16T22:44:32.261Z,4.37
2022-11-16T22:46:59.313Z,4.87
2022-11-16T22:49:26.420Z,4.70
2022-11-16T22:51:53.835Z,4.00
2022-11-16T22:54:24.585Z,5.23
2022-11-16T22:56:55.465Z,4.23
2022-11-16T22:59:22.657Z,4.10
2022-11-16T23:01:49.676Z,4.57
2022-11-16T23:04:16.852Z,4.80
2022-11-16T23:06:43.920Z,4.43
2022-11-16T23:09:10.985Z,4.43
2022-11-16T23:11:56.517Z,4.43
2022-11-16T23:14:42.536Z,4.07
2022-11-16T23:17:09.631Z,4.20
2022-11-16T23:19:55.605Z,3.87
2022-11-16T23:22:41.596Z,4.53
2022-11-16T23:25:28.985Z,4.10
2022-11-16T23:28:01.922Z,4.43
2022-11-16T23:30:29.033Z,4.40
2022-11-16T23:32:56.198Z,4.10
2022-11-16T23:35:23.531Z,3.90
2022-11-16T23:37:57.672Z,3.97
2022-11-16T23:40:26.238Z,4.20
2022-11-16T23:43:12.269Z,4.43
2022-11-16T23:45:39.919Z,4.43
2022-11-16T23:48:07.807Z,3.80
2022-11-16T23:50:34.961Z,3.80
2022-11-16T23:53:02.326Z,4.97
2022-11-16T23:55:29.591Z,4.77
2022-11-16T23:57:56.730Z,3.90
